createdAt,value
2017-07-16T00:02:19.396Z,50.68
2017-07-16T00:04:47.011Z,50.24
2017-07-16T00:07:14.624Z,50.01
2017-07-16T00:09:42.760Z,49.98
2017-07-16T00:12:10.330Z,50.05
2017-07-16T00:14:37.941Z,50.46
2017-07-16T00:17:05.560Z,50.57
2017-07-16T00:19:33.446Z,50.53
2017-07-16T00:22:01.241Z,50.79
2017-07-16T00:24:28.876Z,51.27
2017-07-16T00:26:56.483Z,51.45
2017-07-16T00:29:24.025Z,51.25
2017-07-16T00:31:51.611Z,51.39
2017-07-16T00:34:19.215Z,51.44
2017-07-16T00:36:46.836Z,51.33
2017-07-16T00:39:14.446Z,51.48
2017-07-16T00:41:42.027Z,51.67
2017-07-16T00:44:09.650Z,51.66
2017-07-16T00:46:37.546Z,51.91
2017-07-16T00:49:06.042Z,51.92
2017-07-16T00:51:33.678Z,52.30
2017-07-16T00:54:01.274Z,52.42
2017-07-16T00:56:28.832Z,52.91
2017-07-16T00:58:57.478Z,53.01
2017-07-16T01:01:25.173Z,53.08
2017-07-16T01:03:52.787Z,53.29
2017-07-16T01:06:20.603Z,53.30
2017-07-16T01:08:48.181Z,53.45
2017-07-16T01:11:15.734Z,53.09
2017-07-16T01:13:43.278Z,53.10
2017-07-16T01:16:10.890Z,53.55
2017-07-16T01:18:38.443Z,53.47
2017-07-16T01:21:06.043Z,53.95
2017-07-16T01:23:34.389Z,53.73
2017-07-16T01:26:01.938Z,53.80
2017-07-16T01:28:29.799Z,53.87
2017-07-16T01:30:57.824Z,53.93
2017-07-16T01:33:25.396Z,54.02
2017-07-16T01:35:53.022Z,53.57
2017-07-16T01:38:20.643Z,53.59
2017-07-16T01:40:48.241Z,53.49
2017-07-16T01:43:16.052Z,53.44
2017-07-16T01:45:43.694Z,53.48
2017-07-16T01:48:12.951Z,53.13
2017-07-16T01:50:40.555Z,52.97
2017-07-16T01:53:08.550Z,51.65
2017-07-16T01:55:36.188Z,51.39
2017-07-16T01:58:04.009Z,51.59
2017-07-16T02:00:31.718Z,51.03
2017-07-16T02:02:59.262Z,50.86
2017-07-16T02:05:26.815Z,51.16
2017-07-16T02:07:54.535Z,50.67
2017-07-16T02:10:22.180Z,50.62
2017-07-16T02:12:49.728Z,50.66
2017-07-16T02:15:17.329Z,50.81
2017-07-16T02:17:45.103Z,50.21
2017-07-16T02:20:12.852Z,50.35
2017-07-16T02:22:40.464Z,50.15
2017-07-16T02:25:08.077Z,50.44
2017-07-16T02:27:35.860Z,51.17
2017-07-16T02:30:05.664Z,51.17
2017-07-16T02:32:33.246Z,51.69
2017-07-16T02:35:00.801Z,51.69
2017-07-16T02:37:28.447Z,51.60
2017-07-16T02:39:57.101Z,51.89
2017-07-16T02:42:24.701Z,52.12
2017-07-16T02:44:56.831Z,51.67
2017-07-16T02:47:24.376Z,51.72
2017-07-16T02:49:52.198Z,51.55
2017-07-16T02:52:19.837Z,51.92
2017-07-16T02:54:47.831Z,51.84
2017-07-16T02:57:15.421Z,51.75
2017-07-16T02:59:43.006Z,52.04
2017-07-16T03:02:10.614Z,52.48
2017-07-16T03:04:38.179Z,52.88
2017-07-16T03:07:05.948Z,52.83
2017-07-16T03:09:33.645Z,52.69
2017-07-16T03:12:01.235Z,52.75
2017-07-16T03:14:28.887Z,53.03
2017-07-16T03:16:56.683Z,52.69
2017-07-16T03:19:24.271Z,52.61
2017-07-16T03:21:52.042Z,52.25
2017-07-16T03:24:19.652Z,52.22
2017-07-16T03:26:47.655Z,52.46
2017-07-16T03:29:15.244Z,52.38
2017-07-16T03:31:42.820Z,52.40
2017-07-16T03:34:10.357Z,52.35
2017-07-16T03:36:38.149Z,52.55
2017-07-16T03:39:05.755Z,53.09
2017-07-16T03:41:33.570Z,52.88
2017-07-16T03:44:01.334Z,53.05
2017-07-16T03:46:28.975Z,53.10
2017-07-16T03:48:56.563Z,52.51
2017-07-16T03:51:24.311Z,52.56
2017-07-16T03:53:52.607Z,52.65
2017-07-16T03:56:20.560Z,52.78
2017-07-16T03:58:48.346Z,52.69
2017-07-16T04:01:15.977Z,52.94
2017-07-16T04:03:44.287Z,52.98
2017-07-16T04:06:12.179Z,53.25
2017-07-16T04:08:39.835Z,53.29
2017-07-16T04:11:07.469Z,53.66
2017-07-16T04:13:35.079Z,53.91
2017-07-16T04:16:02.668Z,54.49
2017-07-16T04:18:30.458Z,55.01
2017-07-16T04:20:58.020Z,54.90
2017-07-16T04:23:25.674Z,54.81
2017-07-16T04:25:53.585Z,54.56
2017-07-16T04:28:21.366Z,54.57
2017-07-16T04:30:49.337Z,54.37
2017-07-16T04:33:16.972Z,54.15
2017-07-16T04:35:44.752Z,54.14
2017-07-16T04:38:12.395Z,54.07
2017-07-16T04:40:40.037Z,54.51
2017-07-16T04:43:07.630Z,54.85
2017-07-16T04:45:35.268Z,54.55
2017-07-16T04:48:03.480Z,54.95
2017-07-16T04:50:31.032Z,55.35
2017-07-16T04:52:58.653Z,55.21
2017-07-16T04:55:26.407Z,54.66
2017-07-16T04:57:54.186Z,54.55
2017-07-16T05:00:22.089Z,54.85
2017-07-16T05:02:49.915Z,54.75
2017-07-16T05:05:17.607Z,54.64
2017-07-16T05:07:45.217Z,54.40
2017-07-16T05:10:12.801Z,54.39
2017-07-16T05:12:40.382Z,54.56
2017-07-16T05:15:07.988Z,54.89
2017-07-16T05:17:35.561Z,55.13
2017-07-16T05:20:03.103Z,55.16
2017-07-16T05:22:30.693Z,55.18
2017-07-16T05:24:58.226Z,55.23
2017-07-16T05:27:25.794Z,55.04
2017-07-16T05:29:53.382Z,54.83
2017-07-16T05:32:20.977Z,55.42
2017-07-16T05:34:48.659Z,55.75
2017-07-16T05:37:16.996Z,55.31
2017-07-16T05:39:44.573Z,55.75
2017-07-16T05:42:12.392Z,56.06
2017-07-16T05:44:39.937Z,56.03
2017-07-16T05:47:07.526Z,56.06
2017-07-16T05:49:35.092Z,55.79
2017-07-16T05:52:02.693Z,56.41
2017-07-16T05:54:30.343Z,56.43
2017-07-16T05:56:57.963Z,56.22
2017-07-16T05:59:25.892Z,56.62
2017-07-16T06:01:53.562Z,56.50
2017-07-16T06:04:21.318Z,56.01
2017-07-16T06:06:48.900Z,55.47
2017-07-16T06:09:16.513Z,55.34
2017-07-16T06:11:44.274Z,55.54
2017-07-16T06:14:12.261Z,55.54
2017-07-16T06:16:39.890Z,55.71
2017-07-16T06:19:07.442Z,55.77
2017-07-16T06:21:35.085Z,55.89
2017-07-16T06:24:02.661Z,56.14
2017-07-16T06:26:30.708Z,56.07
2017-07-16T06:28:58.340Z,56.35
2017-07-16T06:31:26.518Z,56.49
2017-07-16T06:33:54.136Z,56.66
2017-07-16T06:36:23.261Z,56.67
2017-07-16T06:38:50.875Z,56.65
2017-07-16T06:41:18.486Z,56.17
2017-07-16T06:43:46.398Z,56.24
2017-07-16T06:46:14.023Z,55.96
2017-07-16T06:48:41.640Z,56.16
2017-07-16T06:51:09.500Z,55.85
2017-07-16T06:53:37.096Z,55.84
2017-07-16T06:56:04.966Z,56.30
2017-07-16T06:58:32.714Z,57.42
2017-07-16T07:01:00.515Z,57.29
2017-07-16T07:03:28.106Z,57.56
2017-07-16T07:05:55.723Z,56.92
2017-07-16T07:08:23.371Z,57.01
2017-07-16T07:10:51.015Z,56.69
2017-07-16T07:13:18.904Z,57.05
2017-07-16T07:15:46.724Z,57.69
2017-07-16T07:18:14.257Z,58.53
2017-07-16T07:20:41.827Z,57.88
2017-07-16T07:23:09.568Z,58.48
2017-07-16T07:25:37.157Z,58.79
2017-07-16T07:28:04.790Z,60.24
2017-07-16T07:30:32.370Z,59.45
2017-07-16T07:32:59.975Z,59.52
2017-07-16T07:35:27.722Z,59.58
2017-07-16T07:37:55.350Z,60.33
2017-07-16T07:40:22.959Z,60.21
2017-07-16T07:42:51.226Z,59.07
2017-07-16T07:45:18.832Z,58.66
2017-07-16T07:47:46.406Z,59.44
2017-07-16T07:50:13.970Z,58.64
2017-07-16T07:52:42.499Z,59.53
2017-07-16T07:55:10.057Z,59.43
2017-07-16T07:57:37.681Z,58.81
2017-07-16T08:00:08.735Z,58.17
2017-07-16T08:02:36.274Z,58.59
2017-07-16T08:05:03.853Z,58.53
2017-07-16T08:07:31.498Z,57.47
2017-07-16T08:09:59.159Z,57.04
2017-07-16T08:12:26.987Z,56.18
2017-07-16T08:14:54.627Z,55.23
2017-07-16T08:17:30.518Z,55.33
2017-07-16T08:20:02.121Z,55.72
2017-07-16T08:22:29.777Z,55.15
2017-07-16T08:24:57.402Z,53.93
2017-07-16T08:27:25.083Z,55.01
2017-07-16T08:29:52.875Z,55.95
2017-07-16T08:32:20.453Z,56.12
2017-07-16T08:34:48.029Z,57.00
2017-07-16T08:37:15.667Z,57.43
2017-07-16T08:39:43.328Z,58.20
2017-07-16T08:42:10.912Z,58.20
2017-07-16T08:44:38.726Z,59.07
2017-07-16T08:47:06.344Z,59.32
2017-07-16T08:49:33.927Z,60.15
2017-07-16T08:52:01.470Z,60.79
2017-07-16T08:54:29.064Z,60.08
2017-07-16T08:56:56.802Z,60.59
2017-07-16T08:59:24.584Z,61.66
2017-07-16T09:01:52.194Z,62.54
2017-07-16T09:04:19.957Z,62.47
2017-07-16T09:06:47.608Z,63.14
2017-07-16T09:09:15.476Z,63.23
2017-07-16T09:11:43.117Z,62.72
2017-07-16T09:14:10.761Z,62.86
2017-07-16T09:16:38.465Z,63.63
2017-07-16T09:19:06.169Z,62.44
2017-07-16T09:21:34.375Z,63.33
2017-07-16T09:24:02.035Z,62.69
2017-07-16T09:26:29.711Z,62.39
2017-07-16T09:28:57.522Z,62.31
2017-07-16T09:31:25.153Z,62.65
2017-07-16T09:33:52.797Z,63.47
2017-07-16T09:36:21.523Z,64.06
2017-07-16T09:38:49.219Z,63.79
2017-07-16T09:41:16.982Z,64.00
2017-07-16T09:43:45.058Z,63.52
2017-07-16T09:46:12.687Z,63.37
2017-07-16T09:48:40.342Z,63.45
2017-07-16T09:51:07.920Z,62.45
2017-07-16T09:53:37.106Z,64.18
2017-07-16T09:56:04.740Z,65.41
2017-07-16T09:58:32.348Z,65.16
2017-07-16T10:01:00.173Z,65.52
2017-07-16T10:03:27.874Z,65.47
2017-07-16T10:05:56.530Z,65.38
2017-07-16T10:08:24.423Z,65.25
2017-07-16T10:11:07.376Z,64.67
2017-07-16T10:13:36.131Z,65.06
2017-07-16T10:16:03.755Z,64.50
2017-07-16T10:18:31.464Z,64.83
2017-07-16T10:21:00.779Z,64.33
2017-07-16T10:23:28.561Z,64.34
2017-07-16T10:25:57.026Z,64.13
2017-07-16T10:28:24.869Z,64.83
2017-07-16T10:30:52.600Z,63.49
2017-07-16T10:33:20.895Z,63.84
2017-07-16T10:35:48.675Z,64.94
2017-07-16T10:38:17.839Z,64.70
2017-07-16T10:40:46.018Z,64.84
2017-07-16T10:43:14.314Z,66.64
2017-07-16T10:45:41.980Z,66.20
2017-07-16T10:48:12.134Z,66.90
2017-07-16T10:50:40.636Z,67.36
2017-07-16T10:53:10.122Z,66.99
2017-07-16T10:55:38.074Z,66.33
2017-07-16T10:58:06.116Z,65.89
2017-07-16T11:00:34.165Z,65.83
2017-07-16T11:03:02.336Z,64.59
2017-07-16T11:05:30.313Z,65.16
2017-07-16T11:07:58.028Z,66.45
2017-07-16T11:10:26.067Z,67.63
2017-07-16T11:12:53.886Z,67.08
2017-07-16T11:15:32.081Z,67.80
2017-07-16T11:17:59.747Z,67.72
2017-07-16T11:20:28.330Z,67.65
2017-07-16T11:22:59.512Z,67.22
2017-07-16T11:25:27.200Z,68.38
2017-07-16T11:27:55.773Z,67.54
2017-07-16T11:30:23.519Z,67.37
2017-07-16T11:32:51.184Z,68.20
2017-07-16T11:35:19.940Z,67.77
2017-07-16T11:37:51.348Z,66.72
2017-07-16T11:40:19.018Z,66.91
2017-07-16T11:42:46.665Z,66.39
2017-07-16T11:45:17.042Z,66.39
2017-07-16T11:47:44.919Z,66.80
2017-07-16T11:53:42.139Z,67.09
2017-07-16T11:56:09.848Z,68.39
2017-07-16T11:58:37.539Z,67.58
2017-07-16T12:01:05.456Z,67.47
2017-07-16T12:03:34.097Z,68.12
2017-07-16T12:06:01.763Z,68.09
2017-07-16T12:08:29.416Z,68.23
2017-07-16T12:10:57.180Z,68.35
2017-07-16T12:13:24.989Z,67.33
2017-07-16T12:15:52.586Z,67.51
2017-07-16T12:18:20.200Z,65.91
2017-07-16T12:20:47.929Z,66.99
2017-07-16T12:23:15.763Z,68.08
2017-07-16T12:25:43.403Z,67.52
2017-07-16T12:28:11.999Z,66.85
2017-07-16T12:30:40.385Z,66.91
2017-07-16T12:33:08.217Z,67.58
2017-07-16T12:35:36.872Z,67.06
2017-07-16T12:38:04.448Z,65.47
2017-07-16T12:40:32.125Z,66.52
2017-07-16T12:42:59.761Z,67.87
2017-07-16T12:45:27.402Z,67.33
2017-07-16T12:47:54.980Z,67.37
2017-07-16T12:50:22.787Z,67.47
2017-07-16T12:52:50.392Z,67.87
2017-07-16T12:55:17.988Z,67.01
2017-07-16T12:57:45.580Z,66.21
2017-07-16T13:00:22.609Z,66.16
2017-07-16T13:03:07.941Z,66.68
2017-07-16T13:08:44.853Z,65.92
2017-07-16T13:11:12.449Z,66.39
2017-07-16T13:13:40.011Z,67.75
2017-07-16T13:16:09.864Z,66.81
2017-07-16T13:18:40.409Z,67.43
2017-07-16T13:21:08.285Z,67.18
2017-07-16T13:23:57.847Z,66.14
2017-07-16T13:26:30.441Z,66.82
2017-07-16T13:28:58.101Z,66.53
2017-07-16T13:31:25.827Z,66.79
2017-07-16T13:33:53.815Z,66.47
2017-07-16T13:36:21.642Z,67.02
2017-07-16T13:38:49.278Z,67.93
2017-07-16T13:41:16.822Z,66.65
2017-07-16T13:43:44.413Z,67.01
2017-07-16T13:46:12.019Z,66.11
2017-07-16T13:48:39.594Z,66.92
2017-07-16T13:51:07.357Z,66.70
2017-07-16T13:53:35.198Z,65.89
2017-07-16T13:56:02.809Z,66.75
2017-07-16T13:58:30.410Z,67.49
2017-07-16T14:00:58.038Z,67.04
2017-07-16T14:03:25.850Z,68.05
2017-07-16T14:05:53.678Z,68.61
2017-07-16T14:08:21.268Z,68.62
2017-07-16T14:10:48.881Z,68.22
2017-07-16T14:13:16.574Z,68.54
2017-07-16T14:15:44.179Z,66.70
2017-07-16T14:18:11.751Z,65.26
2017-07-16T14:20:39.311Z,66.39
2017-07-16T14:23:06.980Z,65.67
2017-07-16T14:25:34.577Z,65.40
2017-07-16T14:28:02.410Z,65.56
2017-07-16T14:30:30.924Z,65.45
2017-07-16T14:32:58.740Z,65.51
2017-07-16T14:35:26.287Z,65.98
2017-07-16T14:37:53.900Z,66.27
2017-07-16T14:40:21.507Z,66.27
2017-07-16T14:42:49.323Z,65.85
2017-07-16T14:45:16.955Z,66.89
2017-07-16T14:47:44.831Z,66.36
2017-07-16T14:50:12.409Z,66.40
2017-07-16T14:52:40.060Z,66.66
2017-07-16T14:55:08.845Z,65.58
2017-07-16T14:57:36.962Z,66.39
2017-07-16T15:00:08.068Z,66.44
2017-07-16T15:02:35.662Z,66.34
2017-07-16T15:05:03.238Z,65.82
2017-07-16T15:07:31.672Z,65.75
2017-07-16T15:09:59.425Z,66.27
2017-07-16T15:12:27.105Z,66.26
2017-07-16T15:14:54.777Z,67.46
2017-07-16T15:17:22.506Z,66.08
2017-07-16T15:19:50.379Z,66.28
2017-07-16T15:22:18.070Z,66.34
2017-07-16T15:24:45.802Z,66.13
2017-07-16T15:27:13.470Z,65.71
2017-07-16T15:29:41.167Z,66.37
2017-07-16T15:32:09.756Z,66.74
2017-07-16T15:34:38.160Z,66.15
2017-07-16T15:37:05.767Z,66.27
2017-07-16T15:39:33.437Z,66.12
2017-07-16T15:42:01.018Z,66.57
2017-07-16T15:44:28.792Z,68.07
2017-07-16T15:46:57.284Z,67.52
2017-07-16T15:49:25.140Z,68.91
2017-07-16T15:51:53.068Z,68.46
2017-07-16T15:54:20.657Z,68.21
2017-07-16T15:56:48.830Z,67.78
2017-07-16T15:59:17.606Z,67.77
2017-07-16T16:01:45.231Z,68.30
2017-07-16T16:04:14.326Z,67.41
2017-07-16T16:06:41.936Z,68.43
2017-07-16T16:09:10.486Z,67.61
2017-07-16T16:11:38.271Z,66.88
2017-07-16T16:14:05.864Z,66.51
2017-07-16T16:16:33.502Z,65.94
2017-07-16T16:19:01.284Z,65.95
2017-07-16T16:21:29.067Z,65.62
2017-07-16T16:23:57.465Z,65.54
2017-07-16T16:26:25.920Z,65.14
2017-07-16T16:28:53.809Z,64.91
2017-07-16T16:31:21.521Z,65.24
2017-07-16T16:33:49.091Z,65.19
2017-07-16T16:36:16.684Z,65.39
2017-07-16T16:38:44.274Z,65.33
2017-07-16T16:41:11.888Z,66.52
2017-07-16T16:43:39.451Z,65.96
2017-07-16T16:46:07.870Z,65.20
2017-07-16T16:48:35.483Z,65.78
2017-07-16T16:51:05.562Z,65.95
2017-07-16T16:53:33.465Z,66.73
2017-07-16T16:56:02.639Z,66.51
2017-07-16T16:58:30.600Z,67.32
2017-07-16T17:00:59.191Z,67.62
2017-07-16T17:03:26.783Z,66.85
2017-07-16T17:05:54.381Z,67.74
2017-07-16T17:08:22.832Z,68.15
2017-07-16T17:10:50.635Z,68.35
2017-07-16T17:13:18.202Z,67.14
2017-07-16T17:15:46.089Z,66.56
2017-07-16T17:18:13.651Z,67.47
2017-07-16T17:20:41.298Z,67.03
2017-07-16T17:23:09.763Z,67.09
2017-07-16T17:25:37.324Z,66.88
2017-07-16T17:28:05.246Z,66.43
2017-07-16T17:30:40.540Z,66.95
2017-07-16T17:33:09.042Z,66.67
2017-07-16T17:35:40.845Z,67.37
2017-07-16T17:38:08.751Z,67.95
2017-07-16T17:40:38.107Z,68.96
2017-07-16T17:43:05.683Z,70.02
2017-07-16T17:45:34.193Z,69.71
2017-07-16T17:48:01.837Z,67.77
2017-07-16T17:50:29.407Z,68.26
2017-07-16T17:52:57.052Z,68.10
2017-07-16T17:55:24.882Z,68.03
2017-07-16T17:57:52.473Z,67.75
2017-07-16T18:00:20.102Z,68.31
2017-07-16T18:02:47.885Z,67.83
2017-07-16T18:05:15.564Z,67.61
2017-07-16T18:07:43.221Z,66.38
2017-07-16T18:10:10.882Z,66.22
2017-07-16T18:12:38.536Z,67.54
2017-07-16T18:15:06.162Z,68.31
2017-07-16T18:17:33.967Z,67.68
2017-07-16T18:20:01.647Z,67.68
2017-07-16T18:22:29.285Z,68.26
2017-07-16T18:24:56.843Z,68.47
2017-07-16T18:27:24.433Z,67.49
2017-07-16T18:29:52.091Z,69.21
2017-07-16T18:32:19.688Z,69.79
2017-07-16T18:34:48.162Z,68.60
2017-07-16T18:37:16.354Z,67.70
2017-07-16T18:39:44.500Z,66.21
2017-07-16T18:42:12.167Z,66.27
2017-07-16T18:44:40.289Z,65.94
2017-07-16T18:47:07.970Z,66.22
2017-07-16T18:49:35.728Z,65.20
2017-07-16T18:52:03.428Z,65.36
2017-07-16T18:54:31.152Z,66.23
2017-07-16T18:56:58.978Z,65.97
2017-07-16T18:59:27.107Z,65.44
2017-07-16T19:01:54.750Z,63.75
2017-07-16T19:04:22.360Z,65.12
2017-07-16T19:06:50.253Z,64.35
2017-07-16T19:09:19.114Z,64.64
2017-07-16T19:11:47.014Z,65.39
2017-07-16T19:14:14.726Z,64.02
2017-07-16T19:16:42.359Z,63.95
2017-07-16T19:19:10.009Z,64.06
2017-07-16T19:21:37.648Z,63.92
2017-07-16T19:24:05.333Z,64.17
2017-07-16T19:26:32.968Z,63.96
2017-07-16T19:29:01.418Z,63.72
2017-07-16T19:31:29.210Z,64.58
2017-07-16T19:33:57.809Z,64.64
2017-07-16T19:36:26.365Z,64.44
2017-07-16T19:38:54.011Z,63.95
2017-07-16T19:41:21.743Z,64.16
2017-07-16T19:43:49.390Z,64.86
2017-07-16T19:46:17.076Z,65.18
2017-07-16T19:48:46.169Z,65.67
2017-07-16T19:51:13.999Z,65.64
2017-07-16T19:53:41.594Z,66.09
2017-07-16T19:56:09.166Z,66.57
2017-07-16T19:58:37.145Z,66.25
2017-07-16T20:01:04.814Z,66.38
2017-07-16T20:03:32.432Z,66.96
2017-07-16T20:06:00.865Z,66.37
2017-07-16T20:08:28.560Z,65.14
2017-07-16T20:10:56.126Z,64.17
2017-07-16T20:13:23.740Z,65.18
2017-07-16T20:15:52.347Z,65.73
2017-07-16T20:18:20.451Z,66.21
2017-07-16T20:20:48.903Z,66.33
2017-07-16T20:23:16.612Z,66.60
2017-07-16T20:25:44.207Z,66.19
2017-07-16T20:28:11.847Z,67.00
2017-07-16T20:30:40.353Z,67.36
2017-07-16T20:33:07.975Z,67.22
2017-07-16T20:35:35.590Z,68.13
2017-07-16T20:38:03.261Z,68.37
2017-07-16T20:40:31.495Z,67.80
2017-07-16T20:42:59.334Z,66.41
2017-07-16T20:45:33.425Z,66.47
2017-07-16T20:48:04.202Z,66.55
2017-07-16T20:50:34.595Z,65.73
2017-07-16T20:56:27.346Z,66.24
2017-07-16T20:58:55.725Z,67.11
2017-07-16T21:08:27.321Z,68.23
2017-07-16T21:10:54.959Z,67.95
2017-07-16T21:13:22.780Z,68.37
2017-07-16T21:15:51.224Z,68.08
2017-07-16T21:18:35.652Z,67.22
2017-07-16T21:21:03.293Z,65.81
2017-07-16T21:23:31.595Z,66.50
2017-07-16T21:25:59.299Z,66.68
2017-07-16T21:28:28.893Z,66.98
2017-07-16T21:30:57.442Z,67.14
2017-07-16T21:33:25.116Z,67.23
2017-07-16T21:35:52.749Z,67.99
2017-07-16T21:38:21.156Z,67.02
2017-07-16T21:40:49.795Z,67.38
2017-07-16T21:43:17.577Z,67.72
2017-07-16T21:45:45.280Z,67.58
2017-07-16T21:48:12.919Z,67.77
2017-07-16T21:50:41.180Z,67.91
2017-07-16T21:53:09.306Z,68.35
2017-07-16T21:55:37.414Z,67.96
2017-07-16T21:58:05.045Z,67.66
2017-07-16T22:00:32.663Z,67.43
2017-07-16T22:03:01.016Z,67.97
2017-07-16T22:05:28.649Z,67.95
2017-07-16T22:07:56.282Z,67.39
2017-07-16T22:10:23.910Z,66.49
2017-07-16T22:12:52.353Z,64.96
2017-07-16T22:15:19.999Z,65.72
2017-07-16T22:17:48.643Z,65.47
2017-07-16T22:20:16.916Z,64.41
2017-07-16T22:22:44.506Z,64.67
2017-07-16T22:25:13.321Z,65.35
2017-07-16T22:27:42.149Z,65.62
2017-07-16T22:30:09.946Z,65.15
2017-07-16T22:32:37.638Z,65.81
2017-07-16T22:35:06.046Z,66.12
2017-07-16T22:37:33.679Z,65.80
2017-07-16T22:40:01.314Z,65.65
2017-07-16T22:42:29.577Z,66.85
2017-07-16T22:44:57.180Z,67.92
2017-07-16T22:47:24.803Z,68.00
2017-07-16T22:49:52.444Z,68.29
2017-07-16T22:52:20.234Z,67.76
2017-07-16T22:54:47.827Z,67.44
2017-07-16T22:57:15.491Z,67.76
2017-07-16T22:59:43.161Z,67.02
2017-07-16T23:02:10.785Z,68.21
2017-07-16T23:04:38.376Z,68.97
2017-07-16T23:07:05.975Z,68.80
2017-07-16T23:09:34.156Z,68.42
2017-07-16T23:12:01.787Z,69.20
2017-07-16T23:14:29.620Z,69.83
2017-07-16T23:16:57.310Z,69.39
2017-07-16T23:19:24.980Z,69.03
2017-07-16T23:21:52.621Z,68.89
2017-07-16T23:24:20.254Z,68.62
2017-07-16T23:26:47.827Z,68.82
2017-07-16T23:29:15.477Z,68.32
2017-07-16T23:31:43.145Z,68.92
2017-07-16T23:34:11.711Z,68.29
2017-07-16T23:36:40.268Z,68.20
2017-07-16T23:39:09.027Z,67.84
2017-07-16T23:41:37.467Z,68.36
2017-07-16T23:44:05.846Z,68.04
2017-07-16T23:46:33.851Z,67.32
2017-07-16T23:49:01.452Z,67.70
2017-07-16T23:51:29.231Z,68.62
2017-07-16T23:53:56.879Z,69.47
2017-07-16T23:56:24.462Z,69.91
2017-07-16T23:58:52.681Z,70.06
